createdAt,value
2018-05-14T00:01:34.056Z,93.71
2018-05-14T00:04:03.218Z,93.44
2018-05-14T00:06:31.702Z,93.34
2018-05-14T00:09:00.126Z,92.98
2018-05-14T00:11:29.318Z,93.02
2018-05-14T00:13:58.549Z,93.03
2018-05-14T00:16:26.961Z,93.13
2018-05-14T00:18:55.550Z,94.10
2018-05-14T00:21:24.012Z,94.36
2018-05-14T00:23:52.435Z,94.56
2018-05-14T00:26:20.899Z,94.05
2018-05-14T00:28:49.330Z,93.70
2018-05-14T00:31:18.498Z,93.67
2018-05-14T00:33:46.903Z,93.05
2018-05-14T00:36:15.310Z,93.19
2018-05-14T00:38:44.557Z,93.00
2018-05-14T00:41:12.971Z,93.26
2018-05-14T00:43:41.742Z,94.30
2018-05-14T00:46:10.910Z,94.35
2018-05-14T00:48:39.330Z,94.31
2018-05-14T00:51:07.779Z,94.39
2018-05-14T00:53:36.225Z,93.57
2018-05-14T00:56:04.954Z,93.28
2018-05-14T00:58:33.404Z,93.34
2018-05-14T01:01:01.917Z,93.87
2018-05-14T01:03:30.331Z,94.24
2018-05-14T01:05:58.761Z,94.00
2018-05-14T01:08:28.882Z,93.87
2018-05-14T01:10:58.066Z,93.99
2018-05-14T01:13:26.480Z,94.01
2018-05-14T01:15:55.661Z,93.40
2018-05-14T01:18:24.108Z,93.18
2018-05-14T01:20:53.376Z,92.69
2018-05-14T01:23:21.820Z,93.14
2018-05-14T01:25:50.242Z,93.39
2018-05-14T01:28:18.695Z,93.89
2018-05-14T01:30:47.895Z,93.81
2018-05-14T01:33:16.306Z,94.35
2018-05-14T01:35:44.815Z,93.85
2018-05-14T01:38:13.262Z,93.94
2018-05-14T01:40:42.445Z,93.78
2018-05-14T01:43:10.849Z,94.05
2018-05-14T01:45:40.037Z,94.35
2018-05-14T01:48:08.439Z,94.25
2018-05-14T01:50:37.714Z,94.05
2018-05-14T01:53:06.137Z,93.60
2018-05-14T01:55:34.609Z,93.52
2018-05-14T01:58:03.791Z,93.35
2018-05-14T02:00:32.230Z,93.00
2018-05-14T02:03:00.654Z,93.11
2018-05-14T02:05:29.263Z,93.22
2018-05-14T02:07:58.473Z,93.55
2018-05-14T02:10:27.638Z,93.45
2018-05-14T02:12:56.039Z,93.62
2018-05-14T02:15:24.451Z,93.63
2018-05-14T02:20:29.917Z,93.86
2018-05-14T02:22:59.299Z,94.08
2018-05-14T02:25:27.745Z,93.48
2018-05-14T02:27:56.139Z,93.90
2018-05-14T02:30:25.314Z,93.48
2018-05-14T02:32:53.746Z,92.97
2018-05-14T02:35:22.189Z,93.77
2018-05-14T02:37:50.631Z,94.22
2018-05-14T02:40:19.102Z,94.27
2018-05-14T02:42:48.286Z,93.82
2018-05-14T02:45:16.727Z,93.91
2018-05-14T02:47:45.124Z,93.79
2018-05-14T02:50:13.606Z,94.10
2018-05-14T02:52:42.090Z,94.20
2018-05-14T02:55:10.508Z,93.48
2018-05-14T02:57:39.000Z,93.20
2018-05-14T03:00:07.544Z,93.04
2018-05-14T03:02:35.959Z,92.98
2018-05-14T03:05:04.379Z,93.99
2018-05-14T03:07:33.534Z,93.84
2018-05-14T03:10:02.733Z,93.97
2018-05-14T03:12:31.121Z,93.96
2018-05-14T03:15:00.294Z,93.66
2018-05-14T03:17:28.812Z,93.26
2018-05-14T03:19:57.240Z,93.74
2018-05-14T03:22:25.720Z,94.02
2018-05-14T03:24:54.879Z,94.11
2018-05-14T03:27:23.294Z,93.45
2018-05-14T03:29:51.690Z,93.28
2018-05-14T03:32:20.926Z,93.17
2018-05-14T03:34:49.340Z,93.21
2018-05-14T03:37:17.787Z,94.39
2018-05-14T03:39:46.212Z,93.66
2018-05-14T03:42:14.705Z,93.96
2018-05-14T03:44:43.158Z,93.97
2018-05-14T03:47:11.548Z,93.88
2018-05-14T03:49:39.947Z,94.44
2018-05-14T03:52:08.390Z,93.74
2018-05-14T03:54:36.798Z,93.78
2018-05-14T03:57:05.235Z,93.30
2018-05-14T03:59:51.858Z,93.54
2018-05-14T04:02:37.950Z,93.72
2018-05-14T04:05:19.616Z,93.94
2018-05-14T04:07:48.809Z,93.72
2018-05-14T04:10:17.995Z,93.62
2018-05-14T04:12:46.428Z,93.38
2018-05-14T04:15:14.829Z,93.69
2018-05-14T04:17:43.299Z,94.11
2018-05-14T04:20:11.709Z,93.75
2018-05-14T04:22:40.138Z,93.86
2018-05-14T04:25:08.560Z,93.52
2018-05-14T04:27:37.046Z,93.58
2018-05-14T04:30:05.506Z,93.74
2018-05-14T04:32:33.926Z,94.25
2018-05-14T04:35:02.343Z,94.74
2018-05-14T04:37:30.768Z,94.96
2018-05-14T04:39:59.194Z,95.15
2018-05-14T04:42:27.613Z,94.30
2018-05-14T04:44:56.051Z,94.49
2018-05-14T04:47:24.486Z,93.78
2018-05-14T04:49:52.922Z,93.95
2018-05-14T04:52:21.428Z,93.73
2018-05-14T04:54:50.632Z,94.10
2018-05-14T04:57:19.827Z,93.31
2018-05-14T04:59:48.270Z,93.10
2018-05-14T05:02:16.700Z,93.35
2018-05-14T05:04:45.193Z,93.61
2018-05-14T05:07:14.434Z,93.09
2018-05-14T05:09:42.867Z,93.68
2018-05-14T05:12:11.281Z,93.94
2018-05-14T05:14:39.703Z,94.21
2018-05-14T05:17:08.934Z,94.32
2018-05-14T05:19:37.303Z,93.91
2018-05-14T05:22:05.730Z,94.07
2018-05-14T05:24:34.225Z,93.70
2018-05-14T05:27:02.650Z,93.63
2018-05-14T05:29:31.067Z,93.22
2018-05-14T05:32:00.258Z,92.33
2018-05-14T05:34:28.682Z,91.62
2018-05-14T05:36:57.166Z,92.02
2018-05-14T05:39:25.585Z,92.51
2018-05-14T05:41:54.029Z,92.61
2018-05-14T05:44:22.462Z,91.40
2018-05-14T05:46:50.852Z,91.61
2018-05-14T05:49:19.285Z,91.55
2018-05-14T05:51:47.773Z,91.53
2018-05-14T05:54:16.934Z,90.89
2018-05-14T05:56:45.328Z,91.07
2018-05-14T05:59:14.513Z,91.01
2018-05-14T06:01:42.911Z,91.08
2018-05-14T06:04:12.155Z,91.21
2018-05-14T06:06:40.609Z,91.79
2018-05-14T06:09:09.791Z,89.31
2018-05-14T06:11:38.189Z,88.96
2018-05-14T06:14:07.367Z,88.55
2018-05-14T06:16:35.762Z,88.14
2018-05-14T06:19:05.007Z,88.85
2018-05-14T06:21:33.860Z,87.81
2018-05-14T06:24:03.030Z,87.63
2018-05-14T06:26:31.437Z,86.50
2018-05-14T06:28:59.845Z,84.88
2018-05-14T06:31:29.069Z,87.53
2018-05-14T06:33:57.456Z,86.92
2018-05-14T06:36:25.842Z,87.64
2018-05-14T06:38:54.283Z,86.07
2018-05-14T06:41:23.438Z,85.79
2018-05-14T06:43:51.863Z,87.88
2018-05-14T06:46:20.322Z,87.32
2018-05-14T06:48:48.788Z,86.35
2018-05-14T06:51:17.183Z,85.42
2018-05-14T06:53:46.378Z,85.15
2018-05-14T06:56:14.771Z,83.75
2018-05-14T06:58:43.201Z,85.62
2018-05-14T07:01:11.605Z,86.56
2018-05-14T07:03:40.029Z,83.45
2018-05-14T07:06:08.401Z,85.53
2018-05-14T07:08:37.639Z,84.54
2018-05-14T07:11:06.038Z,84.67
2018-05-14T07:13:35.186Z,81.85
2018-05-14T07:16:03.618Z,83.13
2018-05-14T07:18:32.779Z,82.67
2018-05-14T07:21:01.200Z,80.28
2018-05-14T07:23:30.519Z,82.47
2018-05-14T07:25:59.700Z,82.76
2018-05-14T07:28:28.123Z,83.47
2018-05-14T07:30:56.509Z,81.02
2018-05-14T07:33:24.921Z,82.69
2018-05-14T07:35:53.302Z,84.50
2018-05-14T07:38:21.728Z,84.04
2018-05-14T07:40:50.890Z,82.04
2018-05-14T07:43:19.294Z,78.53
2018-05-14T07:45:47.704Z,80.21
2018-05-14T07:48:16.897Z,77.00
2018-05-14T07:50:46.045Z,76.62
2018-05-14T07:53:14.498Z,78.87
2018-05-14T07:55:42.939Z,78.44
2018-05-14T07:58:11.394Z,76.18
2018-05-14T08:00:39.775Z,76.28
2018-05-14T08:03:08.145Z,74.50
2018-05-14T08:05:36.802Z,74.41
2018-05-14T08:08:05.145Z,67.48
2018-05-14T08:10:33.579Z,65.84
2018-05-14T08:13:02.752Z,62.59
2018-05-14T08:15:31.164Z,60.36
2018-05-14T08:18:00.341Z,63.64
2018-05-14T08:20:28.771Z,65.87
2018-05-14T08:22:57.210Z,68.38
2018-05-14T08:25:25.621Z,67.54
2018-05-14T08:27:54.865Z,68.15
2018-05-14T08:30:23.271Z,73.09
2018-05-14T08:32:51.655Z,70.76
2018-05-14T08:35:20.081Z,70.01
2018-05-14T08:37:48.590Z,68.63
2018-05-14T08:40:17.813Z,67.62
2018-05-14T08:42:46.231Z,67.71
2018-05-14T08:45:15.389Z,71.25
2018-05-14T08:47:43.794Z,69.48
2018-05-14T08:50:12.186Z,66.34
2018-05-14T08:52:40.595Z,67.62
2018-05-14T08:55:09.775Z,64.21
2018-05-14T08:57:38.216Z,63.14
2018-05-14T09:00:06.565Z,58.48
2018-05-14T09:02:34.950Z,54.03
2018-05-14T09:05:03.378Z,56.97
2018-05-14T09:07:31.835Z,57.15
2018-05-14T09:10:00.249Z,56.04
2018-05-14T09:12:28.622Z,53.42
2018-05-14T09:14:57.785Z,55.24
2018-05-14T09:17:26.184Z,53.60
2018-05-14T09:19:54.591Z,56.88
2018-05-14T09:22:22.979Z,54.68
2018-05-14T09:24:51.363Z,50.84
2018-05-14T09:27:19.774Z,49.96
2018-05-14T09:29:48.178Z,48.58
2018-05-14T09:32:17.357Z,56.91
2018-05-14T09:34:45.750Z,46.35
2018-05-14T09:37:14.977Z,47.60
2018-05-14T09:39:43.380Z,50.24
2018-05-14T09:42:11.820Z,49.40
2018-05-14T09:44:41.419Z,49.48
2018-05-14T09:47:09.818Z,55.03
2018-05-14T09:49:39.246Z,47.04
2018-05-14T09:52:07.716Z,45.61
2018-05-14T09:54:36.907Z,46.01
2018-05-14T09:57:06.083Z,46.53
2018-05-14T09:59:34.533Z,48.76
2018-05-14T10:02:03.101Z,47.25
2018-05-14T10:04:32.497Z,47.25
2018-05-14T10:07:01.668Z,47.03
2018-05-14T10:09:30.890Z,48.34
2018-05-14T10:12:00.146Z,44.79
2018-05-14T10:14:29.365Z,48.73
2018-05-14T10:16:57.721Z,47.63
2018-05-14T10:19:26.150Z,47.03
2018-05-14T10:21:54.553Z,48.09
2018-05-14T10:24:23.742Z,46.03
2018-05-14T10:26:52.931Z,45.41
2018-05-14T10:29:21.330Z,48.13
2018-05-14T10:31:49.762Z,45.05
2018-05-14T10:34:18.163Z,47.04
2018-05-14T10:36:46.600Z,45.63
2018-05-14T10:39:15.801Z,48.21
2018-05-14T10:41:44.994Z,48.08
2018-05-14T10:44:14.170Z,46.85
2018-05-14T10:46:42.827Z,48.55
2018-05-14T10:49:11.208Z,49.33
2018-05-14T10:51:39.623Z,47.27
2018-05-14T10:54:08.046Z,47.38
2018-05-14T10:56:36.479Z,47.45
2018-05-14T10:59:04.955Z,48.68
2018-05-14T11:01:33.345Z,47.61
2018-05-14T11:04:01.866Z,47.49
2018-05-14T11:06:30.258Z,47.47
2018-05-14T11:08:59.422Z,48.56
2018-05-14T11:11:27.847Z,46.88
2018-05-14T11:13:57.030Z,46.52
2018-05-14T11:16:25.434Z,44.93
2018-05-14T11:18:54.893Z,46.20
2018-05-14T11:21:23.339Z,50.17
2018-05-14T11:23:51.750Z,45.28
2018-05-14T11:26:20.141Z,47.81
2018-05-14T11:28:48.521Z,50.42
2018-05-14T11:31:17.681Z,49.63
2018-05-14T11:33:46.829Z,47.31
2018-05-14T11:36:15.210Z,46.80
2018-05-14T11:38:44.365Z,46.73
2018-05-14T11:41:13.510Z,47.66
2018-05-14T11:43:41.900Z,45.97
2018-05-14T11:46:10.311Z,46.61
2018-05-14T11:48:38.718Z,45.21
2018-05-14T11:51:07.113Z,50.36
2018-05-14T11:53:35.534Z,48.50
2018-05-14T11:56:04.694Z,48.04
2018-05-14T11:58:33.121Z,43.85
2018-05-14T12:01:02.285Z,47.17
2018-05-14T12:03:30.669Z,45.09
2018-05-14T12:05:59.058Z,45.56
2018-05-14T12:08:27.505Z,47.43
2018-05-14T12:10:56.677Z,45.82
2018-05-14T12:13:25.099Z,45.05
2018-05-14T12:15:54.336Z,42.98
2018-05-14T12:18:22.720Z,46.59
2018-05-14T12:20:51.108Z,46.51
2018-05-14T12:23:19.514Z,44.80
2018-05-14T12:25:47.951Z,43.54
2018-05-14T12:28:16.314Z,44.28
2018-05-14T12:30:45.465Z,45.64
2018-05-14T12:33:13.909Z,44.52
2018-05-14T12:35:43.050Z,45.17
2018-05-14T12:38:11.436Z,45.81
2018-05-14T12:40:39.893Z,48.42
2018-05-14T12:43:08.265Z,50.62
2018-05-14T12:45:36.661Z,50.66
2018-05-14T12:48:05.033Z,49.83
2018-05-14T12:50:33.502Z,50.23
2018-05-14T12:53:02.681Z,51.49
2018-05-14T12:55:31.081Z,47.95
2018-05-14T12:58:00.290Z,47.17
2018-05-14T13:00:29.542Z,45.60
2018-05-14T13:02:58.086Z,49.24
2018-05-14T13:05:26.458Z,47.62
2018-05-14T13:07:54.847Z,47.21
2018-05-14T13:10:23.977Z,49.59
2018-05-14T13:12:52.387Z,48.68
2018-05-14T13:15:21.551Z,46.43
2018-05-14T13:17:49.923Z,42.72
2018-05-14T13:20:19.095Z,46.33
2018-05-14T13:22:47.578Z,41.15
2018-05-14T13:25:16.006Z,42.24
2018-05-14T13:27:44.417Z,41.09
2018-05-14T13:30:12.798Z,39.74
2018-05-14T13:32:42.026Z,40.19
2018-05-14T13:35:10.400Z,39.59
2018-05-14T13:37:38.809Z,38.76
2018-05-14T13:40:07.251Z,39.43
2018-05-14T13:42:35.860Z,38.84
2018-05-14T13:45:04.249Z,37.94
2018-05-14T13:47:32.634Z,37.50
2018-05-14T13:50:01.006Z,38.42
2018-05-14T13:52:29.474Z,38.57
2018-05-14T13:54:57.948Z,39.03
2018-05-14T13:57:26.497Z,37.28
2018-05-14T13:59:54.815Z,36.18
2018-05-14T14:02:23.207Z,35.65
2018-05-14T14:04:51.748Z,36.31
2018-05-14T14:07:20.198Z,36.96
2018-05-14T14:09:48.608Z,37.66
2018-05-14T14:12:16.978Z,35.92
2018-05-14T14:14:45.351Z,35.64
2018-05-14T14:17:13.721Z,34.21
2018-05-14T14:19:42.106Z,33.95
2018-05-14T14:22:10.480Z,34.73
2018-05-14T14:24:38.863Z,35.03
2018-05-14T14:27:08.173Z,35.20
2018-05-14T14:29:36.570Z,35.52
2018-05-14T14:32:04.994Z,36.07
2018-05-14T14:34:34.149Z,34.66
2018-05-14T14:37:02.566Z,35.66
2018-05-14T14:39:30.974Z,37.61
2018-05-14T14:42:00.228Z,34.95
2018-05-14T14:44:29.331Z,34.30
2018-05-14T14:46:57.737Z,33.92
2018-05-14T14:49:26.234Z,32.75
2018-05-14T14:51:55.389Z,35.75
2018-05-14T14:54:23.794Z,33.33
2018-05-14T14:56:52.189Z,33.73
2018-05-14T14:59:20.596Z,34.08
2018-05-14T15:01:48.982Z,32.08
2018-05-14T15:04:17.352Z,32.68
2018-05-14T15:06:46.518Z,33.15
2018-05-14T15:09:14.898Z,32.78
2018-05-14T15:11:43.285Z,33.58
2018-05-14T15:14:11.712Z,32.52
2018-05-14T15:16:40.091Z,33.36
2018-05-14T15:19:09.270Z,32.46
2018-05-14T15:21:37.649Z,31.33
2018-05-14T15:24:06.098Z,32.18
2018-05-14T15:26:34.409Z,31.31
2018-05-14T15:29:02.803Z,31.84
2018-05-14T15:31:31.353Z,30.59
2018-05-14T15:33:59.742Z,29.64
2018-05-14T15:36:28.121Z,30.94
2018-05-14T15:38:56.494Z,29.48
2018-05-14T15:41:24.948Z,29.40
2018-05-14T15:43:53.298Z,28.94
2018-05-14T15:46:21.818Z,29.68
2018-05-14T15:48:50.982Z,30.92
2018-05-14T15:51:19.377Z,29.98
2018-05-14T15:53:47.757Z,31.35
2018-05-14T15:56:16.171Z,32.02
2018-05-14T15:58:44.530Z,31.48
2018-05-14T16:01:13.712Z,32.49
2018-05-14T16:03:42.110Z,32.89
2018-05-14T16:06:10.530Z,32.70
2018-05-14T16:08:38.905Z,33.54
2018-05-14T16:11:07.273Z,33.70
2018-05-14T16:13:36.567Z,35.15
2018-05-14T16:16:04.946Z,36.28
2018-05-14T16:18:34.113Z,35.11
2018-05-14T16:21:02.511Z,36.22
2018-05-14T16:23:30.886Z,35.81
2018-05-14T16:25:59.282Z,36.32
2018-05-14T16:28:27.682Z,38.97
2018-05-14T16:30:56.118Z,38.03
2018-05-14T16:33:24.611Z,37.65
2018-05-14T16:35:52.905Z,38.06
2018-05-14T16:38:22.068Z,36.87
2018-05-14T16:40:50.435Z,36.69
2018-05-14T16:43:19.602Z,38.21
2018-05-14T16:45:47.990Z,39.54
2018-05-14T16:48:16.427Z,40.39
2018-05-14T16:50:44.808Z,39.24
2018-05-14T16:53:13.226Z,40.42
2018-05-14T16:55:41.623Z,38.42
2018-05-14T16:58:10.022Z,38.89
2018-05-14T17:00:38.470Z,39.25
2018-05-14T17:03:06.851Z,37.95
2018-05-14T17:05:35.245Z,38.22
2018-05-14T17:08:03.638Z,38.69
2018-05-14T17:10:32.033Z,39.63
2018-05-14T17:13:00.410Z,40.75
2018-05-14T17:15:28.817Z,39.05
2018-05-14T17:17:58.000Z,39.79
2018-05-14T17:20:26.438Z,39.08
2018-05-14T17:22:54.838Z,40.58
2018-05-14T17:25:23.213Z,38.90
2018-05-14T17:27:51.623Z,40.01
2018-05-14T17:30:20.021Z,41.03
2018-05-14T17:32:48.439Z,38.89
2018-05-14T17:35:16.845Z,40.39
2018-05-14T17:37:45.323Z,39.56
2018-05-14T17:40:13.725Z,38.96
2018-05-14T17:42:42.126Z,40.14
2018-05-14T17:45:10.541Z,38.34
2018-05-14T17:47:39.732Z,38.91
2018-05-14T17:50:08.110Z,39.16
2018-05-14T17:52:36.522Z,39.32
2018-05-14T17:55:05.709Z,38.80
2018-05-14T17:57:34.899Z,39.96
2018-05-14T18:00:03.337Z,39.92
2018-05-14T18:02:31.706Z,38.68
2018-05-14T18:05:00.227Z,39.12
2018-05-14T18:07:28.611Z,38.33
2018-05-14T18:09:57.090Z,39.69
2018-05-14T18:12:25.486Z,39.02
2018-05-14T18:14:53.885Z,39.19
2018-05-14T18:17:22.398Z,41.05
2018-05-14T18:19:56.194Z,40.19
2018-05-14T18:22:26.342Z,41.40
2018-05-14T18:25:00.300Z,40.72
2018-05-14T18:27:31.935Z,41.04
2018-05-14T18:30:06.583Z,40.99
2018-05-14T18:32:34.968Z,42.02
2018-05-14T18:35:08.913Z,41.15
2018-05-14T18:37:38.079Z,41.98
2018-05-14T18:40:06.465Z,43.77
2018-05-14T18:42:34.929Z,42.49
2018-05-14T18:45:03.332Z,43.67
2018-05-14T18:47:32.550Z,44.28
2018-05-14T18:50:00.966Z,44.60
2018-05-14T18:52:29.353Z,43.05
2018-05-14T18:54:57.771Z,42.97
2018-05-14T18:57:26.221Z,44.19
2018-05-14T18:59:54.618Z,44.38
2018-05-14T19:02:23.049Z,43.69
2018-05-14T19:04:51.451Z,44.56
2018-05-14T19:07:20.625Z,45.35
2018-05-14T19:09:49.025Z,46.11
2018-05-14T19:12:18.214Z,49.00
2018-05-14T19:14:52.228Z,49.33
2018-05-14T19:17:25.981Z,48.25
2018-05-14T19:19:54.430Z,45.58
2018-05-14T19:22:29.048Z,46.85
2018-05-14T19:24:57.457Z,46.46
2018-05-14T19:27:26.646Z,47.50
2018-05-14T19:29:55.890Z,48.23
2018-05-14T19:32:24.402Z,48.19
2018-05-14T19:37:56.479Z,48.13
2018-05-14T19:40:30.338Z,47.85
2018-05-14T19:42:58.749Z,48.47
2018-05-14T19:45:27.176Z,48.49
2018-05-14T19:47:56.363Z,48.85
2018-05-14T19:50:24.857Z,48.99
2018-05-14T19:52:53.276Z,50.13
2018-05-14T19:55:21.738Z,49.38
2018-05-14T19:57:50.108Z,50.46
2018-05-14T20:00:18.501Z,51.24
2018-05-14T20:02:47.681Z,50.68
2018-05-14T20:05:16.079Z,50.39
2018-05-14T20:07:44.495Z,50.71
2018-05-14T20:10:13.231Z,51.46
2018-05-14T20:12:41.642Z,51.46
2018-05-14T20:15:10.831Z,53.54
2018-05-14T20:17:39.219Z,52.99
2018-05-14T20:20:07.735Z,52.67
2018-05-14T20:22:36.154Z,52.64
2018-05-14T20:25:05.323Z,53.59
2018-05-14T20:27:34.531Z,54.16
2018-05-14T20:30:02.918Z,54.10
2018-05-14T20:32:31.370Z,57.62
2018-05-14T20:34:59.794Z,55.93
2018-05-14T20:37:28.274Z,57.07
2018-05-14T20:39:56.678Z,56.89
2018-05-14T20:42:25.079Z,56.51
2018-05-14T20:44:53.562Z,56.66
2018-05-14T20:47:21.945Z,56.84
2018-05-14T20:49:50.365Z,58.02
2018-05-14T20:52:19.546Z,58.20
2018-05-14T20:54:48.031Z,58.43
2018-05-14T20:57:16.465Z,59.06
2018-05-14T20:59:44.960Z,60.24
2018-05-14T21:02:14.180Z,62.66
2018-05-14T21:04:42.570Z,62.42
2018-05-14T21:07:10.954Z,62.48
2018-05-14T21:09:39.358Z,62.97
2018-05-14T21:12:07.835Z,63.89
2018-05-14T21:14:36.353Z,64.63
2018-05-14T21:17:04.667Z,65.99
2018-05-14T21:19:33.058Z,65.74
2018-05-14T21:22:01.629Z,65.37
2018-05-14T21:24:30.027Z,65.53
2018-05-14T21:26:58.469Z,65.99
2018-05-14T21:29:27.618Z,65.75
2018-05-14T21:31:55.998Z,64.72
2018-05-14T21:34:24.402Z,64.26
2018-05-14T21:36:52.778Z,64.71
2018-05-14T21:39:21.178Z,62.84
2018-05-14T21:41:50.329Z,62.42
2018-05-14T21:44:18.722Z,64.02
2018-05-14T21:46:47.135Z,62.55
2018-05-14T21:49:16.293Z,62.32
2018-05-14T21:51:44.661Z,62.11
2018-05-14T21:54:13.074Z,63.57
2018-05-14T21:56:41.483Z,62.71
2018-05-14T21:59:09.859Z,63.13
2018-05-14T22:01:38.346Z,62.98
2018-05-14T22:04:07.565Z,64.33
2018-05-14T22:06:35.957Z,64.67
2018-05-14T22:09:04.335Z,65.79
2018-05-14T22:11:32.751Z,66.02
2018-05-14T22:14:01.258Z,66.17
2018-05-14T22:16:29.648Z,66.82
2018-05-14T22:18:58.031Z,66.35
2018-05-14T22:21:26.417Z,67.96
2018-05-14T22:23:54.793Z,68.79
2018-05-14T22:26:23.194Z,69.65
2018-05-14T22:28:51.639Z,69.11
2018-05-14T22:31:20.029Z,69.51
2018-05-14T22:33:48.418Z,69.38
2018-05-14T22:36:17.244Z,69.57
2018-05-14T22:38:45.723Z,68.26
2018-05-14T22:41:14.265Z,68.45
2018-05-14T22:43:42.709Z,66.77
2018-05-14T22:46:11.086Z,66.77
2018-05-14T22:48:39.477Z,66.10
2018-05-14T22:51:07.882Z,66.35
2018-05-14T22:53:37.042Z,67.39
2018-05-14T22:56:05.430Z,66.90
2018-05-14T22:58:33.879Z,67.26
2018-05-14T23:01:02.288Z,68.36
2018-05-14T23:03:30.708Z,68.66
2018-05-14T23:05:59.914Z,69.11
2018-05-14T23:08:29.092Z,67.53
2018-05-14T23:10:57.461Z,67.84
2018-05-14T23:13:25.866Z,68.04
2018-05-14T23:15:54.243Z,69.36
2018-05-14T23:18:22.632Z,69.36
2018-05-14T23:20:51.036Z,69.31
2018-05-14T23:23:20.197Z,69.43
2018-05-14T23:25:48.602Z,70.54
2018-05-14T23:28:17.027Z,70.73
2018-05-14T23:30:45.439Z,71.11
2018-05-14T23:33:13.865Z,72.55
2018-05-14T23:35:43.138Z,74.37
2018-05-14T23:38:12.281Z,74.07
2018-05-14T23:40:41.497Z,74.20
2018-05-14T23:43:09.874Z,75.30
2018-05-14T23:45:38.255Z,74.60
2018-05-14T23:48:07.419Z,74.77
2018-05-14T23:50:35.894Z,75.11
2018-05-14T23:53:05.709Z,75.11
2018-05-14T23:55:34.102Z,75.31
2018-05-14T23:58:02.485Z,76.87
